Time;durP1;ratioP1;P1;durP2;ratioP2;P2;SDS_P1;SDS_P2;PMS_P1;PMS_P2;Temp;Humidity;BMP_temperature;BMP_pressure;BME280_temperature;BME280_humidity;BME280_pressure;Samples;Min_cycle;Max_cycle;Signal;HPM_P1;HPM_P2
2022/12/23 00:02:28;;;;;;;13.70;6.18;;;;;;;5.64;100.00;99198.09;6208424;28;20121;-90
2022/12/23 00:05:34;;;;;;;12.02;5.85;;;;;;;5.66;100.00;99188.47;6209455;28;20112;-90
2022/12/23 00:08:42;;;;;;;10.27;6.00;;;;;;;5.67;100.00;99192.69;6210298;28;20557;-90
2022/12/23 00:15:05;;;;;;;12.00;5.85;;;;;;;5.73;100.00;99191.38;6208599;28;20054;-90
2022/12/23 00:18:07;;;;;;;10.45;5.25;;;;;;;5.73;100.00;99186.25;6208269;28;20053;-90
2022/12/23 00:21:16;;;;;;;9.23;4.70;;;;;;;5.72;100.00;99195.72;6211185;28;20048;-90
2022/12/23 00:24:18;;;;;;;6.47;3.45;;;;;;;5.78;100.00;99189.25;6207017;28;20045;-89
2022/12/23 00:27:19;;;;;;;4.95;2.80;;;;;;;5.83;100.00;99190.50;6215370;28;20045;-89
2022/12/23 00:30:21;;;;;;;4.47;2.65;;;;;;;5.91;100.00;99197.59;6211535;28;20523;-89
2022/12/23 00:33:26;;;;;;;3.78;2.40;;;;;;;5.95;100.00;99193.06;6212468;28;20052;-89
2022/12/23 00:36:29;;;;;;;3.28;2.28;;;;;;;6.03;100.00;99185.53;6214635;28;20042;-89
2022/12/23 00:42:56;;;;;;;4.95;2.42;;;;;;;6.10;100.00;99176.41;6205210;28;20042;-90
2022/12/23 00:45:57;;;;;;;4.05;2.70;;;;;;;6.12;100.00;99173.72;6226410;28;20148;-90
2022/12/23 00:52:20;;;;;;;7.65;3.20;;;;;;;6.17;100.00;99171.59;6210595;28;20049;-90
2022/12/23 00:55:22;;;;;;;5.85;3.50;;;;;;;6.15;100.00;99168.31;6215339;28;20054;-90
2022/12/23 00:58:27;;;;;;;6.93;3.25;;;;;;;6.16;100.00;99178.47;6209890;28;20046;-90
2022/12/23 01:08:11;;;;;;;4.95;3.15;;;;;;;6.19;100.00;99177.41;6208594;28;20033;-90
2022/12/23 01:11:13;;;;;;;3.58;2.45;;;;;;;6.19;100.00;99164.56;6214799;28;20034;-91
2022/12/23 01:14:16;;;;;;;3.38;2.40;;;;;;;6.22;100.00;99179.72;6210461;28;20112;-91
2022/12/23 01:17:18;;;;;;;3.15;2.47;;;;;;;6.27;100.00;99189.63;6196950;28;20093;-91
2022/12/23 01:20:20;;;;;;;4.05;2.47;;;;;;;6.30;100.00;99186.81;6202393;28;20390;-91
2022/12/23 01:23:21;;;;;;;4.65;2.33;;;;;;;6.33;100.00;99187.34;6208728;28;20042;-91
2022/12/23 01:26:23;;;;;;;6.03;2.67;;;;;;;6.34;100.00;99190.75;6210736;28;20037;-91
2022/12/23 01:29:28;;;;;;;5.63;3.03;;;;;;;6.33;100.00;99186.53;6212324;28;20410;-91
2022/12/23 01:32:30;;;;;;;7.18;3.00;;;;;;;6.34;100.00;99189.00;6213378;28;20506;-91
2022/12/23 01:35:32;;;;;;;5.45;3.15;;;;;;;6.35;100.00;99193.19;6217483;28;20069;-91
2022/12/23 01:38:34;;;;;;;5.25;3.40;;;;;;;6.37;100.00;99195.63;6217312;28;20053;-91
2022/12/23 01:45:16;;;;;;;5.40;3.25;;;;;;;6.40;100.00;99208.22;6211069;28;20046;-91
2022/12/23 01:48:25;;;;;;;7.03;3.10;;;;;;;6.40;100.00;99206.47;6208389;28;20042;-91
2022/12/23 01:51:29;;;;;;;8.48;3.38;;;;;;;6.39;100.00;99209.97;6212224;28;20115;-91
2022/12/23 01:54:31;;;;;;;8.98;3.40;;;;;;;6.41;100.00;99210.69;6210055;28;20049;-91
2022/12/23 01:57:36;;;;;;;8.07;3.03;;;;;;;6.40;100.00;99209.03;6216699;28;20042;-92
2022/12/23 02:04:06;;;;;;;7.40;3.03;;;;;;;6.37;100.00;99206.72;6211580;28;20037;-91
2022/12/23 02:10:44;;;;;;;7.88;3.60;;;;;;;6.37;100.00;99211.84;6201065;28;20042;-91
2022/12/23 02:17:59;;;;;;;6.57;2.30;;;;;;;6.42;100.00;99221.75;6204960;28;20087;-91
2022/12/23 02:21:16;;;;;;;5.60;2.35;;;;;;;6.43;100.00;99234.50;6210188;28;20467;-91
2022/12/23 02:24:51;;;;;;;2.92;2.33;;;;;;;6.47;100.00;99232.47;6212454;28;20042;-92
2022/12/23 02:28:20;;;;;;;3.85;2.47;;;;;;;6.58;100.00;99239.28;6218153;28;20088;-91
2022/12/23 02:31:45;;;;;;;4.70;2.83;;;;;;;6.63;100.00;99227.69;6211596;28;20064;-91
2022/12/23 02:35:23;;;;;;;5.68;3.35;;;;;;;6.69;100.00;99236.66;6215852;28;20049;-91
2022/12/23 02:38:53;;;;;;;9.80;3.17;;;;;;;6.76;100.00;99235.19;6208536;28;20086;-90
2022/12/23 02:42:08;;;;;;;5.13;3.40;;;;;;;6.83;100.00;99231.19;6208605;28;20037;-91
2022/12/23 02:45:20;;;;;;;9.57;4.30;;;;;;;6.84;100.00;99237.13;6214627;28;20048;-91
2022/12/23 02:48:41;;;;;;;9.13;4.40;;;;;;;6.89;100.00;99232.41;6209726;28;20053;-91
2022/12/23 02:51:49;;;;;;;9.93;4.45;;;;;;;6.92;100.00;99234.72;6208412;28;20044;-90
2022/12/23 02:54:55;;;;;;;10.63;4.75;;;;;;;6.91;100.00;99233.09;6211181;28;20058;-91
2022/12/23 02:58:01;;;;;;;12.25;5.22;;;;;;;6.94;100.00;99237.16;6209605;28;20960;-91
2022/12/23 03:01:05;;;;;;;10.80;4.82;;;;;;;6.96;100.00;99238.66;6215940;28;20050;-91
2022/12/23 03:04:07;;;;;;;9.77;5.03;;;;;;;6.96;100.00;99236.09;6219075;28;20141;-92
2022/12/23 03:07:21;;;;;;;67.38;10.77;;;;;;;6.95;100.00;99237.03;6210387;28;20050;-91
2022/12/23 03:10:57;;;;;;;19.25;6.03;;;;;;;6.93;100.00;99235.53;6217010;28;20523;-92
2022/12/23 03:14:11;;;;;;;12.80;5.13;;;;;;;6.93;100.00;99238.09;6216696;28;20403;-92
2022/12/23 03:17:49;;;;;;;143.88;12.57;;;;;;;6.91;100.00;99238.25;6215988;28;20551;-91
2022/12/23 03:20:58;;;;;;;162.85;15.18;;;;;;;6.90;100.00;99239.97;6205523;28;20048;-92
2022/12/23 03:24:15;;;;;;;41.85;6.18;;;;;;;6.87;100.00;99236.88;6210920;28;20212;-92
2022/12/23 03:27:35;;;;;;;15.60;4.75;;;;;;;6.91;100.00;99243.38;6215773;28;20054;-91
2022/12/23 03:30:42;;;;;;;28.80;6.30;;;;;;;6.93;100.00;99236.34;6210416;28;20590;-91
2022/12/23 03:33:50;;;;;;;141.27;13.45;;;;;;;6.95;100.00;99233.63;6205793;28;20038;-91
2022/12/23 03:36:56;;;;;;;65.88;9.52;;;;;;;6.95;100.00;99231.88;6199048;28;20587;-91
2022/12/23 03:40:05;;;;;;;19.70;6.65;;;;;;;6.94;100.00;99240.56;6211518;28;20495;-91
2022/12/23 03:43:24;;;;;;;21.77;6.43;;;;;;;6.97;100.00;99239.47;6211916;28;20075;-91
2022/12/23 03:46:41;;;;;;;138.48;14.38;;;;;;;6.98;100.00;99241.94;6207499;28;20042;-91
2022/12/23 03:49:53;;;;;;;20.23;6.53;;;;;;;7.02;100.00;99256.16;6212145;28;20419;-90
2022/12/23 03:53:08;;;;;;;44.42;7.97;;;;;;;7.13;100.00;99257.81;6212150;28;20420;-88
2022/12/23 03:56:30;;;;;;;18.05;5.70;;;;;;;7.32;100.00;99262.19;6211154;28;20049;-89
2022/12/23 03:59:38;;;;;;;12.73;5.15;;;;;;;7.40;100.00;99264.09;6212937;28;20038;-88
2022/12/23 04:03:18;;;;;;;5.15;2.60;;;;;;;7.54;100.00;99256.03;6207822;28;20081;-89
2022/12/23 04:06:26;;;;;;;2.65;1.80;;;;;;;7.56;100.00;99267.00;6205037;28;20057;-89
2022/12/23 04:09:28;;;;;;;3.83;1.58;;;;;;;7.59;100.00;99258.19;6217332;28;20030;-91
2022/12/23 04:12:30;;;;;;;2.88;1.85;;;;;;;7.58;100.00;99269.44;6189693;28;20034;-90
2022/12/23 04:15:37;;;;;;;3.22;1.98;;;;;;;7.58;100.00;99267.69;6202109;28;20045;-91
2022/12/23 04:18:38;;;;;;;4.30;2.08;;;;;;;7.55;100.00;99280.81;6220729;28;20523;-89
2022/12/23 04:21:40;;;;;;;7.85;2.08;;;;;;;7.49;100.00;99282.16;6212023;28;20109;-91
2022/12/23 04:24:42;;;;;;;5.40;2.17;;;;;;;7.49;100.00;99289.06;6212553;28;20127;-91
2022/12/23 04:27:44;;;;;;;4.43;2.53;;;;;;;7.44;100.00;99289.47;6211359;28;20443;-91
2022/12/23 04:30:46;;;;;;;4.65;2.70;;;;;;;7.47;100.00;99288.38;6220650;28;20046;-90
2022/12/23 04:33:48;;;;;;;5.60;2.95;;;;;;;7.40;100.00;99288.09;6211144;28;20567;-91
2022/12/23 04:36:49;;;;;;;5.22;2.97;;;;;;;7.39;100.00;99293.38;6205171;28;20046;-91
2022/12/23 04:39:51;;;;;;;4.13;2.55;;;;;;;7.46;100.00;99302.22;6240063;28;20516;-91
2022/12/23 04:42:53;;;;;;;4.43;2.80;;;;;;;7.51;100.00;99302.63;6195204;28;20543;-91
2022/12/23 04:45:55;;;;;;;7.15;2.95;;;;;;;7.44;100.00;99301.53;6206213;28;20074;-89
2022/12/23 04:48:57;;;;;;;5.25;2.95;;;;;;;7.40;100.00;99307.88;6207461;28;20049;-88
2022/12/23 04:51:59;;;;;;;6.05;3.20;;;;;;;7.38;100.00;99305.44;6222393;28;20041;-90
2022/12/23 04:55:01;;;;;;;4.93;2.90;;;;;;;7.34;100.00;99314.38;6217541;28;20476;-90
2022/12/23 04:58:03;;;;;;;5.68;3.33;;;;;;;7.30;100.00;99321.56;6213505;28;20042;-92
2022/12/23 05:01:07;;;;;;;7.38;3.88;;;;;;;7.32;100.00;99326.53;6205562;28;20034;-92
2022/12/23 05:04:10;;;;;;;8.48;3.53;;;;;;;7.30;100.00;99325.84;6189614;28;20050;-91
2022/12/23 05:07:12;;;;;;;7.57;3.95;;;;;;;7.29;100.00;99337.09;6224473;28;20130;-92
2022/12/23 05:10:14;;;;;;;8.60;3.97;;;;;;;7.31;100.00;99350.66;6216523;28;20103;-92
2022/12/23 05:13:16;;;;;;;6.97;4.43;;;;;;;7.32;100.00;99345.38;6182481;28;20057;-92
2022/12/23 05:16:18;;;;;;;9.85;4.65;;;;;;;7.22;100.00;99349.66;6216451;28;20539;-92
2022/12/23 05:19:20;;;;;;;10.38;5.18;;;;;;;7.18;100.00;99358.63;6214704;28;20487;-91
2022/12/23 05:22:22;;;;;;;9.23;5.45;;;;;;;7.17;100.00;99366.44;6224937;28;20065;-92
2022/12/23 05:25:24;;;;;;;15.55;6.25;;;;;;;7.18;100.00;99376.63;6213655;28;20044;-91
2022/12/23 05:28:26;;;;;;;14.18;6.47;;;;;;;7.15;100.00;99376.84;6214649;28;20065;-91
2022/12/23 05:31:28;;;;;;;13.80;7.15;;;;;;;7.16;100.00;99388.00;6215025;28;20034;-90
2022/12/23 05:34:30;;;;;;;13.18;6.43;;;;;;;7.09;100.00;99379.94;6216353;28;20038;-92
2022/12/23 05:37:32;;;;;;;12.48;5.97;;;;;;;7.02;100.00;99389.94;6216002;28;20510;-92
2022/12/23 05:40:34;;;;;;;14.15;6.90;;;;;;;6.96;100.00;99392.22;6215568;28;20409;-93
2022/12/23 05:43:39;;;;;;;16.52;7.03;;;;;;;6.87;100.00;99402.28;6215510;28;20052;-92
2022/12/23 05:46:40;;;;;;;14.52;7.18;;;;;;;6.89;100.00;99415.03;6212485;28;20064;-92
2022/12/23 05:49:43;;;;;;;15.80;7.53;;;;;;;6.84;100.00;99417.16;6216164;28;20405;-93
2022/12/23 05:52:44;;;;;;;15.60;7.45;;;;;;;6.75;100.00;99420.47;6225349;28;20050;-93
2022/12/23 05:55:47;;;;;;;14.63;7.28;;;;;;;6.77;100.00;99422.00;6195228;28;20065;-92
2022/12/23 05:58:49;;;;;;;18.17;7.90;;;;;;;6.84;100.00;99433.41;6211836;28;20127;-93
2022/12/23 06:01:57;;;;;;;16.50;7.50;;;;;;;6.83;100.00;99425.81;6214732;28;20049;-93
2022/12/23 06:04:59;;;;;;;15.65;7.00;;;;;;;6.70;100.00;99428.56;6215358;28;20041;-93
2022/12/23 06:08:01;;;;;;;14.93;7.35;;;;;;;6.67;100.00;99432.19;6213072;28;20046;-92
2022/12/23 06:11:04;;;;;;;15.02;6.95;;;;;;;6.62;100.00;99442.03;6213660;28;20321;-93
2022/12/23 06:14:06;;;;;;;16.15;7.50;;;;;;;6.64;100.00;99447.88;6212995;28;20088;-92
2022/12/23 06:17:08;;;;;;;21.10;7.63;;;;;;;6.59;100.00;99444.03;6213168;28;20045;-92
2022/12/23 06:20:10;;;;;;;17.33;7.88;;;;;;;6.64;100.00;99450.44;6213671;28;20042;-92
2022/12/23 06:23:21;;;;;;;15.52;6.60;;;;;;;6.54;100.00;99457.25;6210864;28;20050;-92
2022/12/23 06:26:23;;;;;;;14.27;6.95;;;;;;;6.54;100.00;99457.25;6212908;28;20053;-92
2022/12/23 06:29:25;;;;;;;13.63;6.45;;;;;;;6.51;100.00;99456.69;6213558;28;20128;-92
2022/12/23 06:32:27;;;;;;;11.70;5.80;;;;;;;6.50;100.00;99461.00;6213014;28;20049;-92
2022/12/23 06:35:36;;;;;;;12.88;6.45;;;;;;;6.43;100.00;99462.41;6213703;28;20053;-92
2022/12/23 06:38:38;;;;;;;13.10;6.53;;;;;;;6.47;100.00;99474.09;6215436;28;20052;-92
2022/12/23 06:41:40;;;;;;;19.70;6.85;;;;;;;6.36;100.00;99482.66;6213649;28;20543;-92
2022/12/23 06:44:42;;;;;;;21.08;7.63;;;;;;;6.34;100.00;99488.88;6213140;28;20184;-92
2022/12/23 06:47:44;;;;;;;13.57;6.47;;;;;;;6.40;100.00;99486.63;6212272;28;20425;-92
2022/12/23 06:50:46;;;;;;;16.02;6.90;;;;;;;6.40;100.00;99496.09;6220524;28;20038;-91
2022/12/23 06:53:48;;;;;;;16.58;7.30;;;;;;;6.39;100.00;99503.00;6213360;28;20420;-91
2022/12/23 06:56:50;;;;;;;22.50;7.78;;;;;;;6.29;100.00;99502.06;6209465;28;20158;-91
2022/12/23 06:59:52;;;;;;;21.80;8.05;;;;;;;6.29;100.00;99509.78;6197718;28;20605;-91
2022/12/23 07:02:54;;;;;;;19.58;7.85;;;;;;;6.28;100.00;99517.59;6214152;28;20561;-91
2022/12/23 07:05:56;;;;;;;37.10;10.05;;;;;;;6.25;100.00;99516.09;6206318;28;20459;-91
2022/12/23 07:08:57;;;;;;;33.53;9.35;;;;;;;6.32;100.00;99519.81;6214754;28;20053;-91
2022/12/23 07:12:02;;;;;;;42.45;10.38;;;;;;;6.30;100.00;99526.00;6213478;28;20050;-91
2022/12/23 07:15:04;;;;;;;30.42;9.52;;;;;;;6.28;100.00;99533.84;6207879;28;20053;-91
2022/12/23 07:18:06;;;;;;;23.45;8.18;;;;;;;6.27;100.00;99526.25;6223734;28;20068;-91
2022/12/23 07:21:08;;;;;;;27.08;8.52;;;;;;;6.20;100.00;99534.41;6213840;28;20447;-92
2022/12/23 07:24:25;;;;;;;39.78;8.65;;;;;;;6.19;100.00;99521.72;6215049;28;20412;-91
2022/12/23 07:27:27;;;;;;;24.23;8.27;;;;;;;6.18;100.00;99523.44;6213055;28;20053;-91
2022/12/23 07:30:29;;;;;;;22.00;7.50;;;;;;;6.14;100.00;99527.19;6212402;28;20057;-91
2022/12/23 07:33:31;;;;;;;30.13;9.35;;;;;;;6.21;100.00;99536.06;6212984;28;20154;-91
2022/12/23 07:36:33;;;;;;;61.30;10.80;;;;;;;6.15;100.00;99530.56;6211270;28;20045;-91
2022/12/23 07:39:35;;;;;;;25.10;7.60;;;;;;;6.13;100.00;99535.00;6210729;28;20034;-91
2022/12/23 07:42:37;;;;;;;33.10;9.35;;;;;;;6.05;100.00;99535.59;6211296;28;20050;-91
2022/12/23 07:45:47;;;;;;;42.10;9.93;;;;;;;5.99;100.00;99536.06;6219632;28;20092;-91
2022/12/23 07:48:59;;;;;;;35.55;9.05;;;;;;;6.01;100.00;99547.88;6216135;28;20052;-92
2022/12/23 07:52:01;;;;;;;33.13;9.10;;;;;;;6.02;100.00;99558.97;6219553;28;20078;-91
2022/12/23 07:55:04;;;;;;;36.63;9.63;;;;;;;6.05;100.00;99566.44;6210824;28;20431;-91
2022/12/23 07:58:06;;;;;;;26.73;8.82;;;;;;;6.06;100.00;99565.47;6219236;28;20045;-92
2022/12/23 08:01:08;;;;;;;17.63;7.55;;;;;;;6.09;100.00;99565.28;6211864;28;20030;-91
2022/12/23 08:04:10;;;;;;;28.02;8.88;;;;;;;6.12;100.00;99561.66;6212572;28;20065;-91
2022/12/23 08:07:14;;;;;;;29.33;8.18;;;;;;;6.10;100.00;99564.31;6213702;28;20054;-91
2022/12/23 08:10:16;;;;;;;23.10;9.02;;;;;;;6.23;100.00;99562.44;6210853;28;20395;-91
2022/12/23 08:13:21;;;;;;;28.85;11.38;;;;;;;6.23;100.00;99565.00;6216466;28;20118;-92
2022/12/23 08:16:23;;;;;;;36.33;11.63;;;;;;;6.18;100.00;99568.88;6221163;28;20092;-91
2022/12/23 08:19:25;;;;;;;19.33;8.73;;;;;;;6.17;100.00;99568.06;6218071;28;20496;-91
2022/12/23 08:22:30;;;;;;;24.75;9.57;;;;;;;6.18;100.00;99568.88;6217054;28;20049;-92
2022/12/23 08:25:34;;;;;;;18.42;8.05;;;;;;;6.16;100.00;99573.31;6216689;28;20038;-92
2022/12/23 08:28:38;;;;;;;27.58;8.45;;;;;;;6.15;100.00;99572.50;6217640;28;21147;-92
2022/12/23 08:31:39;;;;;;;23.77;9.63;;;;;;;6.20;100.00;99578.09;6217817;28;20050;-92
2022/12/23 08:34:41;;;;;;;29.67;9.10;;;;;;;6.21;100.00;99578.91;6208306;28;20660;-92
2022/12/23 08:37:45;;;;;;;26.65;9.93;;;;;;;6.28;100.00;99584.41;6213268;28;20038;-92
2022/12/23 08:40:46;;;;;;;20.23;9.75;;;;;;;6.32;100.00;99581.50;6208483;28;20893;-92
2022/12/23 08:43:49;;;;;;;26.98;10.73;;;;;;;6.35;100.00;99585.59;6230805;28;20037;-92
2022/12/23 08:46:54;;;;;;;26.08;10.65;;;;;;;6.38;100.00;99583.59;6202453;28;20045;-92
2022/12/23 08:50:04;;;;;;;34.50;11.38;;;;;;;6.33;100.00;99587.44;6208555;28;20550;-92
2022/12/23 08:53:10;;;;;;;24.98;9.93;;;;;;;6.34;100.00;99591.69;6195796;28;20049;-91
2022/12/23 08:56:20;;;;;;;26.35;10.38;;;;;;;6.35;100.00;99594.09;6213641;28;20282;-91
2022/12/23 08:59:26;;;;;;;29.63;11.07;;;;;;;6.37;100.00;99597.38;6215235;28;20053;-92
2022/12/23 09:02:32;;;;;;;30.00;13.70;;;;;;;6.41;100.00;99596.22;6209467;28;20041;-92
2022/12/23 09:05:40;;;;;;;28.83;11.65;;;;;;;6.50;100.00;99586.16;6222616;28;20049;-91
2022/12/23 09:08:50;;;;;;;30.42;13.05;;;;;;;6.53;100.00;99593.63;6219945;28;20049;-92
2022/12/23 09:11:52;;;;;;;28.67;11.70;;;;;;;6.55;100.00;99602.84;6223778;28;20045;-91
2022/12/23 09:14:57;;;;;;;32.53;12.75;;;;;;;6.55;100.00;99602.03;6218863;28;20824;-91
2022/12/23 09:18:02;;;;;;;40.47;12.85;;;;;;;6.52;100.00;99592.00;6213016;28;20045;-90
2022/12/23 09:21:06;;;;;;;41.42;11.80;;;;;;;6.54;100.00;99598.66;6214759;28;20038;-90
2022/12/23 09:24:08;;;;;;;31.83;12.45;;;;;;;6.55;100.00;99597.72;6203880;28;20695;-90
2022/12/23 09:27:11;;;;;;;28.98;12.20;;;;;;;6.53;100.00;99601.34;6245296;28;20038;-90
2022/12/23 09:30:13;;;;;;;29.17;12.10;;;;;;;6.48;100.00;99601.69;6230956;28;20588;-90
2022/12/23 09:33:18;;;;;;;33.47;12.90;;;;;;;6.43;100.00;99598.66;6223036;28;20061;-90
2022/12/23 09:36:21;;;;;;;40.08;12.10;;;;;;;6.41;100.00;99605.66;6218643;28;20056;-90
2022/12/23 09:39:23;;;;;;;36.38;12.93;;;;;;;6.41;100.00;99601.38;6205459;28;20088;-90
2022/12/23 09:42:56;;;;;;;39.92;13.40;;;;;;;6.45;100.00;99602.75;6221187;28;20064;-90
2022/12/23 09:46:00;;;;;;;37.55;11.43;;;;;;;6.43;100.00;99602.06;6210301;28;20042;-90
2022/12/23 09:49:10;;;;;;;45.17;13.38;;;;;;;6.45;100.00;99602.75;6221803;28;20042;-90
2022/12/23 09:52:21;;;;;;;37.30;13.18;;;;;;;6.50;100.00;99604.97;6211192;28;20046;-90
2022/12/23 09:55:25;;;;;;;;;;;;;;;6.62;100.00;99608.34;6214347;28;20049;-90
2022/12/23 09:58:33;;;;;;;30.25;11.27;;;;;;;6.80;100.00;99601.78;6217651;28;20394;-90
2022/12/23 10:01:56;;;;;;;42.25;13.50;;;;;;;6.93;100.00;99609.34;6223555;28;20042;-91
2022/12/23 10:05:35;;;;;;;31.83;10.52;;;;;;;7.11;100.00;99610.47;6219356;28;20115;-90
2022/12/23 10:08:47;;;;;;;29.98;11.18;;;;;;;7.08;100.00;99613.31;6238729;28;20077;-90
2022/12/23 10:11:50;;;;;;;27.80;11.90;;;;;;;7.07;100.00;99601.34;6214223;28;20057;-90
2022/12/23 10:14:55;;;;;;;30.77;11.25;;;;;;;7.08;100.00;99608.16;6214398;28;20048;-90
2022/12/23 10:18:40;;;;;;;41.05;12.05;;;;;;;7.07;100.00;99610.84;6219106;28;20050;-90
2022/12/23 10:21:47;;;;;;;33.72;14.10;;;;;;;7.18;100.00;99615.13;6166638;28;20057;-90
2022/12/23 10:24:50;;;;;;;31.55;11.77;;;;;;;7.14;100.00;99619.72;6175210;28;20097;-90
2022/12/23 10:27:52;;;;;;;23.80;11.43;;;;;;;7.06;100.00;99611.78;6150967;28;20413;-90
2022/12/23 10:31:10;;;;;;;24.45;10.38;;;;;;;6.96;100.00;99614.28;6152348;28;20656;-90
2022/12/23 10:34:43;;;;;;;25.48;10.18;;;;;;;6.96;100.00;99614.28;6168427;28;20541;-90
2022/12/23 10:38:01;;;;;;;22.52;10.32;;;;;;;6.99;100.00;99605.50;6145090;28;20055;-90
2022/12/23 10:41:30;;;;;;;28.70;10.80;;;;;;;6.98;100.00;99611.56;6134476;28;20409;-89
2022/12/23 10:44:56;;;;;;;29.95;12.30;;;;;;;6.96;100.00;99605.75;6147413;28;20137;-89
2022/12/23 10:48:28;;;;;;;25.25;10.38;;;;;;;6.98;100.00;99594.38;6160764;28;20054;-90
2022/12/23 10:51:56;;;;;;;23.05;9.43;;;;;;;6.98;100.00;99590.97;6161463;28;20480;-89
2022/12/23 10:54:58;;;;;;;24.75;9.73;;;;;;;6.99;100.00;99582.34;6150194;28;20177;-89
2022/12/23 10:58:17;;;;;;;22.75;11.15;;;;;;;7.05;100.00;99584.41;6177674;28;20050;-89
2022/12/23 11:01:20;;;;;;;25.17;10.57;;;;;;;7.00;100.00;99586.53;6217635;28;20496;-89
2022/12/23 11:04:37;;;;;;;23.20;10.20;;;;;;;6.96;100.00;99580.00;6190006;28;20034;-89
2022/12/23 11:07:40;;;;;;;21.63;9.80;;;;;;;6.95;100.00;99588.66;6200504;28;20137;-89
2022/12/23 11:10:47;;;;;;;26.55;10.55;;;;;;;6.92;100.00;99584.56;6209387;28;20042;-89
2022/12/23 11:13:49;;;;;;;24.58;9.60;;;;;;;6.91;100.00;99582.94;6192746;28;20038;-89
2022/12/23 11:16:51;;;;;;;40.83;11.00;;;;;;;6.89;100.00;99587.38;6199669;28;20360;-89
2022/12/23 11:20:12;;;;;;;29.10;10.38;;;;;;;6.91;100.00;99593.22;6207346;28;20718;-89
2022/12/23 11:23:31;;;;;;;25.52;9.77;;;;;;;6.91;100.00;99593.22;6197339;28;20397;-89
2022/12/23 11:26:34;;;;;;;26.92;9.52;;;;;;;6.89;100.00;99592.53;6202031;28;20045;-89
2022/12/23 11:29:42;;;;;;;25.00;10.27;;;;;;;6.90;100.00;99589.00;6193270;28;20427;-89
2022/12/23 11:32:45;;;;;;;19.45;8.35;;;;;;;6.91;100.00;99588.09;6197794;28;20078;-89
2022/12/23 11:35:46;;;;;;;21.70;8.73;;;;;;;6.90;100.00;99587.25;6204779;28;20053;-89
2022/12/23 11:38:52;;;;;;;25.23;9.63;;;;;;;6.92;100.00;99584.56;6202299;28;20087;-89
2022/12/23 11:42:03;;;;;;;24.17;10.35;;;;;;;6.94;100.00;99587.03;6205390;28;20681;-89
2022/12/23 11:45:06;;;;;;;34.65;10.25;;;;;;;6.94;100.00;99592.19;6200382;28;20387;-89
2022/12/23 11:48:27;;;;;;;24.48;9.80;;;;;;;6.94;100.00;99582.69;6209591;28;20464;-89
2022/12/23 11:51:29;;;;;;;20.05;9.00;;;;;;;6.95;100.00;99578.34;6209467;28;20128;-89
2022/12/23 11:54:32;;;;;;;18.33;7.85;;;;;;;6.96;100.00;99580.81;6204943;28;20492;-89
2022/12/23 11:57:47;;;;;;;54.40;11.90;;;;;;;6.98;100.00;99578.09;6212092;28;20514;-89
2022/12/23 12:00:56;;;;;;;23.92;10.15;;;;;;;6.99;100.00;99578.00;6220519;28;20038;-89
2022/12/23 12:04:16;;;;;;;32.58;10.77;;;;;;;6.99;100.00;99582.34;6207916;28;20518;-89
2022/12/23 12:07:18;;;;;;;30.20;12.25;;;;;;;6.94;100.00;99572.41;6199895;28;20048;-89
2022/12/23 12:10:26;;;;;;;54.08;13.90;;;;;;;6.95;100.00;99561.16;6192044;28;20427;-89
2022/12/23 12:13:35;;;;;;;37.60;11.10;;;;;;;6.96;100.00;99557.66;6210772;28;20573;-89
2022/12/23 12:17:04;;;;;;;33.15;10.82;;;;;;;7.02;100.00;99552.03;6206517;28;20426;-89
2022/12/23 12:20:16;;;;;;;57.25;12.63;;;;;;;7.08;100.00;99538.69;6207027;28;20042;-89
2022/12/23 12:23:47;;;;;;;30.33;10.90;;;;;;;7.13;100.00;99533.16;6205785;28;20073;-89
2022/12/23 12:26:51;;;;;;;;;;;;;;;7.19;100.00;99521.56;6200844;28;20038;-89
2022/12/23 12:30:01;;;;;;;47.63;12.75;;;;;;;7.27;100.00;99516.59;6208054;28;20568;-89
2022/12/23 12:33:22;;;;;;;47.33;12.10;;;;;;;7.37;100.00;99511.50;6191625;28;20038;-89
2022/12/23 12:36:48;;;;;;;40.35;13.73;;;;;;;7.44;100.00;99508.31;6193956;28;20188;-89
2022/12/23 12:39:55;;;;;;;32.60;12.20;;;;;;;7.51;100.00;99506.06;6209671;28;20337;-89
2022/12/23 12:43:25;;;;;;;34.35;11.75;;;;;;;7.52;100.00;99498.19;6209782;28;20049;-89
2022/12/23 12:46:43;;;;;;;30.42;10.35;;;;;;;7.51;100.00;99496.56;6204735;28;20042;-89
2022/12/23 12:49:56;;;;;;;29.48;12.07;;;;;;;7.48;100.00;99483.13;6206809;28;20042;-89
2022/12/23 12:53:05;;;;;;;32.97;13.35;;;;;;;7.45;100.00;99488.53;6205089;28;20145;-88
2022/12/23 12:56:25;;;;;;;30.35;12.50;;;;;;;7.43;100.00;99477.53;6204525;28;20103;-89
2022/12/23 12:59:33;;;;;;;33.08;12.68;;;;;;;7.40;100.00;99477.78;6207095;28;20049;-88
2022/12/23 13:03:00;;;;;;;30.50;11.80;;;;;;;7.36;100.00;99482.38;6206305;28;20041;-88
2022/12/23 13:06:28;;;;;;;25.65;11.27;;;;;;;7.35;100.00;99478.16;6200768;28;20038;-88
2022/12/23 13:09:39;;;;;;;21.45;9.55;;;;;;;7.33;100.00;99482.66;6193188;28;20054;-89
2022/12/23 13:13:06;;;;;;;25.73;10.13;;;;;;;7.28;100.00;99472.72;6205385;28;20563;-89
2022/12/23 13:16:25;;;;;;;34.67;10.93;;;;;;;7.25;100.00;99470.38;6206337;28;20050;-88
2022/12/23 13:19:52;;;;;;;35.45;11.63;;;;;;;7.22;100.00;99477.53;6207527;28;20125;-89
2022/12/23 13:23:25;;;;;;;23.17;9.38;;;;;;;7.17;100.00;99483.06;6210524;28;20066;-89
2022/12/23 13:27:14;;;;;;;25.00;10.45;;;;;;;7.05;100.00;99482.28;6202449;28;20093;-89
2022/12/23 13:30:19;;;;;;;29.90;11.27;;;;;;;6.97;100.00;99476.97;6202234;28;20049;-89
2022/12/23 13:33:40;;;;;;;29.90;10.73;;;;;;;6.91;100.00;99472.31;6212064;28;20455;-88
2022/12/23 13:36:58;;;;;;;;;;;;;;;6.86;100.00;99479.59;6206932;28;20053;-88
2022/12/23 13:40:11;;;;;;;36.25;11.80;;;;;;;6.81;100.00;99484.28;6212827;28;19925;-89
2022/12/23 13:43:17;;;;;;;36.30;12.00;;;;;;;6.76;100.00;99481.25;6208076;28;20030;-88
2022/12/23 13:46:48;;;;;;;38.08;12.13;;;;;;;6.72;100.00;99465.25;6196544;28;20975;-88
2022/12/23 13:50:13;;;;;;;31.27;11.63;;;;;;;6.71;100.00;99473.09;6207479;28;20050;-88
2022/12/23 13:53:28;;;;;;;27.27;11.23;;;;;;;6.67;100.00;99468.19;6193695;28;20049;-88
2022/12/23 13:56:56;;;;;;;29.42;11.18;;;;;;;6.65;100.00;99462.34;6207892;28;20530;-89
2022/12/23 14:00:18;;;;;;;28.83;10.68;;;;;;;6.63;100.00;99451.41;6212384;28;20045;-88
2022/12/23 14:03:32;;;;;;;48.05;12.55;;;;;;;6.62;100.00;99449.75;6204993;28;20266;-88
2022/12/23 14:06:35;;;;;;;40.00;12.00;;;;;;;6.60;100.00;99441.34;6191799;28;20304;-88
2022/12/23 14:09:38;;;;;;;40.53;11.88;;;;;;;6.59;100.00;99444.84;6206334;28;20065;-88
2022/12/23 14:12:41;;;;;;;23.65;11.73;;;;;;;6.58;100.00;99450.09;6202264;28;20391;-87
2022/12/23 14:16:08;;;;;;;30.50;11.45;;;;;;;6.56;100.00;99429.69;6192327;28;20526;-88
2022/12/23 14:19:48;;;;;;;27.33;9.93;;;;;;;6.55;100.00;99434.94;6199373;28;20037;-88
2022/12/23 14:23:03;;;;;;;25.75;11.10;;;;;;;6.53;100.00;99429.91;6196909;28;20048;-88
2022/12/23 14:26:32;;;;;;;24.02;10.77;;;;;;;6.50;100.00;99427.59;6199669;28;20048;-88
2022/12/23 14:29:53;;;;;;;30.88;11.40;;;;;;;6.50;100.00;99425.00;6204128;28;20470;-88
2022/12/23 14:33:13;;;;;;;37.88;12.20;;;;;;;6.47;100.00;99422.69;6193692;28;20051;-87
2022/12/23 14:36:22;;;;;;;24.65;10.25;;;;;;;6.45;100.00;99407.38;6204690;28;20135;-86
2022/12/23 14:39:30;;;;;;;58.40;12.82;;;;;;;6.45;100.00;99412.53;6208335;28;20172;-86
2022/12/23 14:42:40;;;;;;;34.03;10.43;;;;;;;6.45;100.00;99411.72;6214603;28;20116;-86
2022/12/23 14:45:43;;;;;;;29.33;10.27;;;;;;;6.43;100.00;99406.72;6204720;28;20041;-86
2022/12/23 14:48:44;;;;;;;78.55;14.10;;;;;;;6.42;100.00;99399.13;6211174;28;20394;-86
2022/12/23 14:51:49;;;;;;;49.40;11.32;;;;;;;6.39;100.00;99404.50;6198225;28;20468;-85
2022/12/23 14:54:51;;;;;;;32.72;11.32;;;;;;;6.38;100.00;99390.81;6210913;28;20342;-86
2022/12/23 14:58:31;;;;;;;34.38;10.25;;;;;;;6.36;100.00;99389.31;6210081;28;20073;-86
2022/12/23 15:01:49;;;;;;;28.77;10.45;;;;;;;6.35;100.00;99382.56;6211502;28;20069;-85
2022/12/23 15:04:56;;;;;;;44.13;10.35;;;;;;;6.34;100.00;99381.75;6209581;28;20104;-86
2022/12/23 15:07:58;;;;;;;25.95;10.05;;;;;;;6.32;100.00;99373.31;6206757;28;20120;-85
2022/12/23 15:11:00;;;;;;;31.58;12.18;;;;;;;6.35;100.00;99375.66;6207173;28;20037;-85